sensor_id;sensor_type;location;lat;lon;timestamp;pressure;altitude;pressure_sealevel;temperature;humidity
22000;BME280;11164;48.818;2.322;2024-02-23T00:00:02;98632.13;;;8.07;43.52
22000;BME280;11164;48.818;2.322;2024-02-23T00:02:33;98631.34;;;7.87;44.27
22000;BME280;11164;48.818;2.322;2024-02-23T00:04:58;98629.25;;;7.90;44.08
22000;BME280;11164;48.818;2.322;2024-02-23T00:07:24;98633.81;;;7.89;44.09
22000;BME280;11164;48.818;2.322;2024-02-23T00:09:49;98634.25;;;7.86;44.01
22000;BME280;11164;48.818;2.322;2024-02-23T00:12:14;98630.72;;;7.85;44.07
22000;BME280;11164;48.818;2.322;2024-02-23T00:14:40;98630.81;;;7.97;43.68
22000;BME280;11164;48.818;2.322;2024-02-23T00:17:05;98634.94;;;8.12;43.64
22000;BME280;11164;48.818;2.322;2024-02-23T00:19:31;98633.53;;;8.21;43.19
22000;BME280;11164;48.818;2.322;2024-02-23T00:21:56;98627.75;;;7.94;43.65
22000;BME280;11164;48.818;2.322;2024-02-23T00:24:24;98634.84;;;7.88;44.10
22000;BME280;11164;48.818;2.322;2024-02-23T00:26:49;98636.53;;;8.01;43.36
22000;BME280;11164;48.818;2.322;2024-02-23T00:29:17;98636.25;;;7.91;43.94
22000;BME280;11164;48.818;2.322;2024-02-23T00:31:42;98642.75;;;7.83;44.41
22000;BME280;11164;48.818;2.322;2024-02-23T00:34:08;98622.63;;;7.92;43.67
22000;BME280;11164;48.818;2.322;2024-02-23T00:36:37;98634.19;;;7.93;44.10
22000;BME280;11164;48.818;2.322;2024-02-23T00:39:03;98627.09;;;8.10;43.55
22000;BME280;11164;48.818;2.322;2024-02-23T00:41:28;98632.25;;;8.23;43.05
22000;BME280;11164;48.818;2.322;2024-02-23T00:43:54;98634.41;;;8.03;43.65
22000;BME280;11164;48.818;2.322;2024-02-23T00:46:19;98632.94;;;8.07;43.51
22000;BME280;11164;48.818;2.322;2024-02-23T00:48:44;98627.06;;;7.98;43.71
22000;BME280;11164;48.818;2.322;2024-02-23T00:51:10;98632.19;;;7.69;44.10
22000;BME280;11164;48.818;2.322;2024-02-23T00:53:35;98636.09;;;7.85;44.30
22000;BME280;11164;48.818;2.322;2024-02-23T00:56:00;98637.38;;;7.83;44.34
22000;BME280;11164;48.818;2.322;2024-02-23T00:58:26;98635.25;;;7.73;44.67
22000;BME280;11164;48.818;2.322;2024-02-23T01:00:51;98629.34;;;7.83;44.54
22000;BME280;11164;48.818;2.322;2024-02-23T01:03:16;98638.34;;;7.88;44.02
22000;BME280;11164;48.818;2.322;2024-02-23T01:05:41;98630.28;;;7.88;44.69
22000;BME280;11164;48.818;2.322;2024-02-23T01:08:08;98633.94;;;7.94;44.20
22000;BME280;11164;48.818;2.322;2024-02-23T01:10:33;98630.81;;;7.97;43.99
22000;BME280;11164;48.818;2.322;2024-02-23T01:12:58;98637.47;;;7.95;44.01
22000;BME280;11164;48.818;2.322;2024-02-23T01:15:24;98634.19;;;7.93;44.12
22000;BME280;11164;48.818;2.322;2024-02-23T01:21:11;98614.34;;;7.94;44.31
22000;BME280;11164;48.818;2.322;2024-02-23T01:23:36;98621.00;;;7.91;44.27
22000;BME280;11164;48.818;2.322;2024-02-23T01:26:01;98621.50;;;7.81;44.72
22000;BME280;11164;48.818;2.322;2024-02-23T01:28:27;98606.84;;;7.54;44.83
22000;BME280;11164;48.818;2.322;2024-02-23T01:30:53;98603.94;;;7.55;45.02
22000;BME280;11164;48.818;2.322;2024-02-23T01:33:18;98612.84;;;7.67;45.07
22000;BME280;11164;48.818;2.322;2024-02-23T01:35:43;98605.66;;;7.80;44.67
22000;BME280;11164;48.818;2.322;2024-02-23T01:38:09;98614.72;;;7.67;44.88
22000;BME280;11164;48.818;2.322;2024-02-23T01:40:34;98605.47;;;7.63;45.22
22000;BME280;11164;48.818;2.322;2024-02-23T01:43:06;98599.97;;;7.58;44.96
22000;BME280;11164;48.818;2.322;2024-02-23T01:45:31;98580.47;;;7.39;45.59
22000;BME280;11164;48.818;2.322;2024-02-23T01:47:58;98594.81;;;7.44;45.23
22000;BME280;11164;48.818;2.322;2024-02-23T01:50:25;98584.53;;;7.41;45.49
22000;BME280;11164;48.818;2.322;2024-02-23T01:52:51;98587.06;;;7.66;44.83
22000;BME280;11164;48.818;2.322;2024-02-23T01:55:19;98584.75;;;7.70;44.61
22000;BME280;11164;48.818;2.322;2024-02-23T01:57:46;98592.75;;;7.58;44.88
22000;BME280;11164;48.818;2.322;2024-02-23T02:00:15;98584.22;;;7.49;45.34
22000;BME280;11164;48.818;2.322;2024-02-23T02:02:41;98575.59;;;7.59;45.23
22000;BME280;11164;48.818;2.322;2024-02-23T02:05:06;98577.63;;;8.18;43.64
22000;BME280;11164;48.818;2.322;2024-02-23T02:07:33;98585.34;;;8.38;42.92
22000;BME280;11164;48.818;2.322;2024-02-23T02:09:58;98578.25;;;7.90;44.16
22000;BME280;11164;48.818;2.322;2024-02-23T02:12:27;98570.88;;;7.73;44.80
22000;BME280;11164;48.818;2.322;2024-02-23T02:14:53;98580.59;;;7.56;45.22
22000;BME280;11164;48.818;2.322;2024-02-23T02:17:18;98582.44;;;7.43;45.66
22000;BME280;11164;48.818;2.322;2024-02-23T02:19:47;98573.09;;;7.34;46.04
22000;BME280;11164;48.818;2.322;2024-02-23T02:22:13;98582.53;;;7.37;45.91
22000;BME280;11164;48.818;2.322;2024-02-23T02:24:38;98578.50;;;7.58;45.02
22000;BME280;11164;48.818;2.322;2024-02-23T02:27:06;98581.09;;;7.64;45.03
22000;BME280;11164;48.818;2.322;2024-02-23T02:29:32;98568.41;;;7.60;45.52
22000;BME280;11164;48.818;2.322;2024-02-23T02:31:57;98571.22;;;7.65;45.71
22000;BME280;11164;48.818;2.322;2024-02-23T02:34:22;98564.53;;;7.56;45.92
22000;BME280;11164;48.818;2.322;2024-02-23T02:36:48;98562.94;;;7.78;45.13
22000;BME280;11164;48.818;2.322;2024-02-23T02:39:14;98567.28;;;7.79;45.25
22000;BME280;11164;48.818;2.322;2024-02-23T02:41:39;98555.25;;;7.70;45.44
22000;BME280;11164;48.818;2.322;2024-02-23T02:44:05;98552.88;;;8.04;44.69
22000;BME280;11164;48.818;2.322;2024-02-23T02:46:30;98544.16;;;7.78;45.24
22000;BME280;11164;48.818;2.322;2024-02-23T02:48:55;98545.47;;;7.87;45.28
22000;BME280;11164;48.818;2.322;2024-02-23T02:51:21;98546.56;;;7.98;44.98
22000;BME280;11164;48.818;2.322;2024-02-23T02:53:46;98544.38;;;7.77;45.58
22000;BME280;11164;48.818;2.322;2024-02-23T02:56:12;98548.28;;;7.81;45.18
22000;BME280;11164;48.818;2.322;2024-02-23T02:58:37;98543.84;;;7.86;45.07
22000;BME280;11164;48.818;2.322;2024-02-23T03:01:03;98533.41;;;7.55;45.59
22000;BME280;11164;48.818;2.322;2024-02-23T03:03:28;98539.75;;;7.72;45.21
22000;BME280;11164;48.818;2.322;2024-02-23T03:05:54;98528.75;;;7.62;45.61
22000;BME280;11164;48.818;2.322;2024-02-23T03:08:19;98530.38;;;7.63;45.10
22000;BME280;11164;48.818;2.322;2024-02-23T03:10:45;98535.28;;;7.66;45.12
22000;BME280;11164;48.818;2.322;2024-02-23T03:13:10;98530.50;;;7.68;44.92
22000;BME280;11164;48.818;2.322;2024-02-23T03:15:35;98533.19;;;7.68;45.10
22000;BME280;11164;48.818;2.322;2024-02-23T03:18:00;98528.31;;;7.65;45.17
22000;BME280;11164;48.818;2.322;2024-02-23T03:20:27;98516.69;;;7.53;45.33
22000;BME280;11164;48.818;2.322;2024-02-23T03:22:52;98517.56;;;7.65;45.13
22000;BME280;11164;48.818;2.322;2024-02-23T03:25:18;98518.59;;;7.64;44.96
22000;BME280;11164;48.818;2.322;2024-02-23T03:27:43;98517.69;;;7.82;44.59
22000;BME280;11164;48.818;2.322;2024-02-23T03:30:09;98506.78;;;7.41;46.09
22000;BME280;11164;48.818;2.322;2024-02-23T03:32:35;98513.91;;;7.47;45.79
22000;BME280;11164;48.818;2.322;2024-02-23T03:35:05;98495.81;;;7.43;45.95
22000;BME280;11164;48.818;2.322;2024-02-23T03:37:31;98499.16;;;7.68;45.06
22000;BME280;11164;48.818;2.322;2024-02-23T03:39:56;98475.31;;;7.48;45.54
22000;BME280;11164;48.818;2.322;2024-02-23T03:42:22;98485.38;;;7.65;45.18
22000;BME280;11164;48.818;2.322;2024-02-23T03:44:47;98472.28;;;7.45;45.78
22000;BME280;11164;48.818;2.322;2024-02-23T03:47:12;98471.84;;;7.60;45.04
22000;BME280;11164;48.818;2.322;2024-02-23T03:49:38;98456.44;;;7.55;45.07
22000;BME280;11164;48.818;2.322;2024-02-23T03:52:04;98465.88;;;7.46;45.52
22000;BME280;11164;48.818;2.322;2024-02-23T03:54:30;98460.22;;;7.24;46.25
22000;BME280;11164;48.818;2.322;2024-02-23T03:56:56;98461.13;;;7.60;45.74
22000;BME280;11164;48.818;2.322;2024-02-23T03:59:21;98468.41;;;7.29;46.44
22000;BME280;11164;48.818;2.322;2024-02-23T04:01:47;98462.63;;;7.56;45.74
22000;BME280;11164;48.818;2.322;2024-02-23T04:04:12;98458.75;;;7.40;46.08
22000;BME280;11164;48.818;2.322;2024-02-23T04:06:37;98447.81;;;7.53;45.41
22000;BME280;11164;48.818;2.322;2024-02-23T04:09:03;98453.03;;;7.36;46.24
22000;BME280;11164;48.818;2.322;2024-02-23T04:11:31;98446.75;;;7.54;45.56
22000;BME280;11164;48.818;2.322;2024-02-23T04:13:57;98445.00;;;7.48;45.71
22000;BME280;11164;48.818;2.322;2024-02-23T04:16:23;98445.00;;;7.36;45.83
22000;BME280;11164;48.818;2.322;2024-02-23T04:18:50;98455.81;;;7.29;46.40
22000;BME280;11164;48.818;2.322;2024-02-23T04:21:15;98446.16;;;7.40;45.98
22000;BME280;11164;48.818;2.322;2024-02-23T04:23:40;98445.47;;;7.45;45.83
22000;BME280;11164;48.818;2.322;2024-02-23T04:26:06;98437.28;;;7.40;45.93
22000;BME280;11164;48.818;2.322;2024-02-23T04:28:31;98438.72;;;7.54;45.53
22000;BME280;11164;48.818;2.322;2024-02-23T04:30:58;98434.53;;;7.58;45.26
22000;BME280;11164;48.818;2.322;2024-02-23T04:33:24;98438.72;;;7.54;45.53
22000;BME280;11164;48.818;2.322;2024-02-23T04:35:50;98435.34;;;7.71;45.42
22000;BME280;11164;48.818;2.322;2024-02-23T04:38:15;98437.78;;;7.60;45.49
22000;BME280;11164;48.818;2.322;2024-02-23T04:40:40;98437.91;;;7.54;45.67
22000;BME280;11164;48.818;2.322;2024-02-23T04:43:06;98446.53;;;7.56;45.54
22000;BME280;11164;48.818;2.322;2024-02-23T04:45:31;98439.31;;;7.56;45.56
22000;BME280;11164;48.818;2.322;2024-02-23T04:47:56;98441.88;;;7.75;45.24
22000;BME280;11164;48.818;2.322;2024-02-23T04:50:21;98442.22;;;7.90;44.64
22000;BME280;11164;48.818;2.322;2024-02-23T04:52:48;98441.84;;;7.63;45.40
22000;BME280;11164;48.818;2.322;2024-02-23T04:55:15;98432.78;;;7.64;45.15
22000;BME280;11164;48.818;2.322;2024-02-23T04:57:40;98438.03;;;7.71;45.23
22000;BME280;11164;48.818;2.322;2024-02-23T05:00:06;98437.56;;;7.62;45.38
22000;BME280;11164;48.818;2.322;2024-02-23T05:02:32;98450.25;;;7.66;45.18
22000;BME280;11164;48.818;2.322;2024-02-23T05:05:01;98442.59;;;7.70;45.08
22000;BME280;11164;48.818;2.322;2024-02-23T05:07:27;98442.81;;;7.68;45.12
22000;BME280;11164;48.818;2.322;2024-02-23T05:09:52;98441.50;;;7.59;45.59
22000;BME280;11164;48.818;2.322;2024-02-23T05:12:17;98446.19;;;7.64;45.48
22000;BME280;11164;48.818;2.322;2024-02-23T05:14:42;98440.34;;;7.55;45.48
22000;BME280;11164;48.818;2.322;2024-02-23T05:17:08;98444.53;;;7.63;45.21
22000;BME280;11164;48.818;2.322;2024-02-23T05:19:33;98443.25;;;7.54;45.64
22000;BME280;11164;48.818;2.322;2024-02-23T05:21:58;98444.41;;;7.58;45.55
22000;BME280;11164;48.818;2.322;2024-02-23T05:24:24;98441.53;;;7.47;45.50
22000;BME280;11164;48.818;2.322;2024-02-23T05:26:49;98448.03;;;7.52;45.43
22000;BME280;11164;48.818;2.322;2024-02-23T05:29:14;98450.94;;;7.50;45.59
22000;BME280;11164;48.818;2.322;2024-02-23T05:31:48;98448.03;;;7.52;45.62
22000;BME280;11164;48.818;2.322;2024-02-23T05:34:14;98452.13;;;7.54;45.29
22000;BME280;11164;48.818;2.322;2024-02-23T05:36:39;98457.13;;;7.50;45.46
22000;BME280;11164;48.818;2.322;2024-02-23T05:39:05;98454.78;;;7.54;45.59
22000;BME280;11164;48.818;2.322;2024-02-23T05:41:32;98459.44;;;7.47;45.52
22000;BME280;11164;48.818;2.322;2024-02-23T05:43:57;98456.78;;;7.47;45.70
22000;BME280;11164;48.818;2.322;2024-02-23T05:46:23;98456.22;;;7.57;45.34
22000;BME280;11164;48.818;2.322;2024-02-23T05:48:48;98450.31;;;7.24;46.44
22000;BME280;11164;48.818;2.322;2024-02-23T05:51:13;98452.31;;;7.29;46.25
22000;BME280;11164;48.818;2.322;2024-02-23T05:53:40;98468.31;;;7.36;45.82
22000;BME280;11164;48.818;2.322;2024-02-23T05:56:06;98457.69;;;7.29;46.27
22000;BME280;11164;48.818;2.322;2024-02-23T05:58:31;98447.34;;;7.44;45.89
22000;BME280;11164;48.818;2.322;2024-02-23T06:00:56;98450.13;;;7.38;45.77
22000;BME280;11164;48.818;2.322;2024-02-23T06:03:22;98446.41;;;7.50;45.82
22000;BME280;11164;48.818;2.322;2024-02-23T06:05:47;98450.38;;;7.48;45.83
22000;BME280;11164;48.818;2.322;2024-02-23T06:08:12;98444.06;;;7.54;45.35
22000;BME280;11164;48.818;2.322;2024-02-23T06:10:38;98452.25;;;7.47;45.68
22000;BME280;11164;48.818;2.322;2024-02-23T06:13:03;98442.34;;;7.48;45.45
22000;BME280;11164;48.818;2.322;2024-02-23T06:15:29;98436.16;;;7.59;45.19
22000;BME280;11164;48.818;2.322;2024-02-23T06:17:54;98442.09;;;7.49;45.32
22000;BME280;11164;48.818;2.322;2024-02-23T06:20:19;98434.59;;;7.28;45.79
22000;BME280;11164;48.818;2.322;2024-02-23T06:22:45;98436.94;;;7.36;45.86
22000;BME280;11164;48.818;2.322;2024-02-23T06:25:10;98441.13;;;7.32;46.05
22000;BME280;11164;48.818;2.322;2024-02-23T06:27:36;98439.16;;;7.39;45.94
22000;BME280;11164;48.818;2.322;2024-02-23T06:30:02;98432.63;;;7.47;45.46
22000;BME280;11164;48.818;2.322;2024-02-23T06:32:28;98427.63;;;7.50;45.26
22000;BME280;11164;48.818;2.322;2024-02-23T06:34:54;98423.22;;;7.44;45.34
22000;BME280;11164;48.818;2.322;2024-02-23T06:37:20;98411.16;;;7.35;45.87
22000;BME280;11164;48.818;2.322;2024-02-23T06:39:45;98417.00;;;7.44;45.94
22000;BME280;11164;48.818;2.322;2024-02-23T06:42:15;98419.47;;;7.45;45.81
22000;BME280;11164;48.818;2.322;2024-02-23T06:44:40;98419.94;;;7.54;45.53
22000;BME280;11164;48.818;2.322;2024-02-23T06:47:06;98421.00;;;7.53;45.40
22000;BME280;11164;48.818;2.322;2024-02-23T06:49:32;98427.53;;;7.57;45.73
22000;BME280;11164;48.818;2.322;2024-02-23T06:51:57;98432.31;;;7.67;45.65
22000;BME280;11164;48.818;2.322;2024-02-23T06:54:22;98434.31;;;7.60;45.85
22000;BME280;11164;48.818;2.322;2024-02-23T06:56:48;98435.44;;;7.52;45.92
22000;BME280;11164;48.818;2.322;2024-02-23T06:59:13;98434.88;;;7.62;45.69
22000;BME280;11164;48.818;2.322;2024-02-23T07:01:50;98437.34;;;7.63;45.94
22000;BME280;11164;48.818;2.322;2024-02-23T07:04:16;98440.25;;;7.62;45.73
22000;BME280;11164;48.818;2.322;2024-02-23T07:06:41;98445.25;;;7.58;45.78
22000;BME280;11164;48.818;2.322;2024-02-23T07:09:06;98448.97;;;7.57;45.62
22000;BME280;11164;48.818;2.322;2024-02-23T07:11:33;98438.84;;;7.71;45.79
22000;BME280;11164;48.818;2.322;2024-02-23T07:13:58;98436.16;;;7.83;45.77
22000;BME280;11164;48.818;2.322;2024-02-23T07:16:23;98443.75;;;7.74;45.79
22000;BME280;11164;48.818;2.322;2024-02-23T07:18:49;98445.72;;;7.67;45.67
22000;BME280;11164;48.818;2.322;2024-02-23T07:21:17;98457.28;;;7.67;46.06
22000;BME280;11164;48.818;2.322;2024-02-23T07:23:43;98448.31;;;7.74;45.79
22000;BME280;11164;48.818;2.322;2024-02-23T07:26:08;98436.38;;;7.69;45.95
22000;BME280;11164;48.818;2.322;2024-02-23T07:28:33;98447.84;;;7.65;46.18
22000;BME280;11164;48.818;2.322;2024-02-23T07:30:59;98444.31;;;7.64;46.18
22000;BME280;11164;48.818;2.322;2024-02-23T07:33:24;98437.81;;;7.72;46.14
22000;BME280;11164;48.818;2.322;2024-02-23T07:35:50;98451.56;;;7.87;46.04
22000;BME280;11164;48.818;2.322;2024-02-23T07:38:15;98448.88;;;7.87;45.88
22000;BME280;11164;48.818;2.322;2024-02-23T07:40:42;98455.91;;;8.12;45.63
22000;BME280;11164;48.818;2.322;2024-02-23T07:43:08;98453.22;;;8.12;45.68
22000;BME280;11164;48.818;2.322;2024-02-23T07:45:35;98432.78;;;8.11;45.89
22000;BME280;11164;48.818;2.322;2024-02-23T07:48:01;98441.53;;;8.18;45.68
22000;BME280;11164;48.818;2.322;2024-02-23T07:50:26;98449.56;;;8.18;45.79
22000;BME280;11164;48.818;2.322;2024-02-23T07:52:52;98450.06;;;8.15;45.97
22000;BME280;11164;48.818;2.322;2024-02-23T07:55:17;98453.44;;;8.22;45.99
22000;BME280;11164;48.818;2.322;2024-02-23T07:57:42;98461.59;;;8.28;45.86
22000;BME280;11164;48.818;2.322;2024-02-23T08:00:08;98470.47;;;8.16;46.34
22000;BME280;11164;48.818;2.322;2024-02-23T08:02:35;98482.97;;;8.22;46.25
22000;BME280;11164;48.818;2.322;2024-02-23T08:05:00;98479.22;;;8.35;46.04
22000;BME280;11164;48.818;2.322;2024-02-23T08:07:26;98475.03;;;8.28;46.02
22000;BME280;11164;48.818;2.322;2024-02-23T08:09:53;98486.00;;;8.14;46.41
22000;BME280;11164;48.818;2.322;2024-02-23T08:12:18;98473.38;;;8.03;46.81
22000;BME280;11164;48.818;2.322;2024-02-23T08:14:44;98462.31;;;8.11;46.51
22000;BME280;11164;48.818;2.322;2024-02-23T08:17:10;98459.38;;;8.24;45.94
22000;BME280;11164;48.818;2.322;2024-02-23T08:19:36;98460.38;;;8.47;45.78
22000;BME280;11164;48.818;2.322;2024-02-23T08:22:01;98463.00;;;8.18;46.17
22000;BME280;11164;48.818;2.322;2024-02-23T08:24:26;98459.50;;;8.30;46.14
22000;BME280;11164;48.818;2.322;2024-02-23T08:26:52;98462.19;;;7.82;47.46
22000;BME280;11164;48.818;2.322;2024-02-23T08:29:18;98466.00;;;8.34;46.78
22000;BME280;11164;48.818;2.322;2024-02-23T08:31:44;98449.66;;;8.47;46.26
22000;BME280;11164;48.818;2.322;2024-02-23T08:34:09;98463.84;;;8.59;46.16
22000;BME280;11164;48.818;2.322;2024-02-23T08:36:35;98464.63;;;8.72;45.89
22000;BME280;11164;48.818;2.322;2024-02-23T08:39:00;98465.75;;;8.88;45.45
22000;BME280;11164;48.818;2.322;2024-02-23T08:41:25;98466.94;;;8.80;45.90
22000;BME280;11164;48.818;2.322;2024-02-23T08:43:50;98467.56;;;8.70;46.09
22000;BME280;11164;48.818;2.322;2024-02-23T08:46:16;98472.25;;;8.63;46.29
22000;BME280;11164;48.818;2.322;2024-02-23T08:48:41;98479.53;;;8.51;46.55
22000;BME280;11164;48.818;2.322;2024-02-23T08:51:07;98480.38;;;8.80;46.26
22000;BME280;11164;48.818;2.322;2024-02-23T08:53:32;98486.44;;;9.16;45.63
22000;BME280;11164;48.818;2.322;2024-02-23T08:55:57;98483.06;;;8.80;46.50
22000;BME280;11164;48.818;2.322;2024-02-23T08:58:22;98480.75;;;9.12;45.78
22000;BME280;11164;48.818;2.322;2024-02-23T09:00:48;98479.81;;;9.35;45.28
22000;BME280;11164;48.818;2.322;2024-02-23T09:03:13;98491.22;;;9.14;45.92
22000;BME280;11164;48.818;2.322;2024-02-23T09:05:39;98490.25;;;9.32;45.60
22000;BME280;11164;48.818;2.322;2024-02-23T09:08:06;98478.94;;;9.47;45.49
22000;BME280;11164;48.818;2.322;2024-02-23T09:10:31;98489.53;;;9.53;45.42
22000;BME280;11164;48.818;2.322;2024-02-23T09:12:57;98483.41;;;9.41;45.80
22000;BME280;11164;48.818;2.322;2024-02-23T09:15:22;98495.16;;;9.52;45.70
22000;BME280;11164;48.818;2.322;2024-02-23T09:17:47;98491.97;;;9.55;45.52
22000;BME280;11164;48.818;2.322;2024-02-23T09:20:12;98479.19;;;9.79;45.49
22000;BME280;11164;48.818;2.322;2024-02-23T09:22:38;98469.38;;;9.73;45.25
22000;BME280;11164;48.818;2.322;2024-02-23T09:25:05;98490.44;;;9.76;45.42
22000;BME280;11164;48.818;2.322;2024-02-23T09:27:31;98479.91;;;9.91;45.16
22000;BME280;11164;48.818;2.322;2024-02-23T09:29:56;98482.97;;;10.17;44.86
22000;BME280;11164;48.818;2.322;2024-02-23T09:32:23;98490.91;;;10.07;45.09
22000;BME280;11164;48.818;2.322;2024-02-23T09:34:48;98483.19;;;10.32;44.92
22000;BME280;11164;48.818;2.322;2024-02-23T09:37:14;98487.25;;;10.13;45.28
22000;BME280;11164;48.818;2.322;2024-02-23T09:39:39;98491.88;;;10.01;45.54
22000;BME280;11164;48.818;2.322;2024-02-23T09:42:09;98483.88;;;10.06;45.33
22000;BME280;11164;48.818;2.322;2024-02-23T09:44:35;98484.88;;;10.39;44.66
22000;BME280;11164;48.818;2.322;2024-02-23T09:47:02;98484.19;;;10.09;45.57
22000;BME280;11164;48.818;2.322;2024-02-23T09:49:37;98477.34;;;10.41;45.27
22000;BME280;11164;48.818;2.322;2024-02-23T09:52:06;98462.59;;;10.87;44.59
22000;BME280;11164;48.818;2.322;2024-02-23T09:54:32;98472.69;;;11.24;43.88
22000;BME280;11164;48.818;2.322;2024-02-23T09:56:57;98479.28;;;10.84;44.67
22000;BME280;11164;48.818;2.322;2024-02-23T09:59:23;98486.47;;;10.57;45.36
22000;BME280;11164;48.818;2.322;2024-02-23T10:01:53;98480.34;;;10.61;45.33
22000;BME280;11164;48.818;2.322;2024-02-23T10:04:19;98466.25;;;10.37;45.63
22000;BME280;11164;48.818;2.322;2024-02-23T10:06:44;98477.50;;;10.29;45.82
22000;BME280;11164;48.818;2.322;2024-02-23T10:09:09;98482.78;;;10.63;45.22
22000;BME280;11164;48.818;2.322;2024-02-23T10:11:37;98487.75;;;10.32;45.39
22000;BME280;11164;48.818;2.322;2024-02-23T10:14:02;98493.88;;;10.44;45.48
22000;BME280;11164;48.818;2.322;2024-02-23T10:16:28;98479.31;;;10.45;45.24
22000;BME280;11164;48.818;2.322;2024-02-23T10:18:53;98489.28;;;10.45;45.36
22000;BME280;11164;48.818;2.322;2024-02-23T10:21:18;98482.09;;;10.95;44.79
22000;BME280;11164;48.818;2.322;2024-02-23T10:23:44;98481.03;;;11.23;44.33
22000;BME280;11164;48.818;2.322;2024-02-23T10:26:10;98481.69;;;11.08;44.36
22000;BME280;11164;48.818;2.322;2024-02-23T10:28:36;98486.53;;;11.33;44.67
22000;BME280;11164;48.818;2.322;2024-02-23T10:31:05;98483.13;;;11.16;44.59
22000;BME280;11164;48.818;2.322;2024-02-23T10:33:30;98492.78;;;11.12;44.64
22000;BME280;11164;48.818;2.322;2024-02-23T10:35:57;98480.41;;;10.66;45.16
22000;BME280;11164;48.818;2.322;2024-02-23T10:38:26;98484.22;;;10.48;45.39
22000;BME280;11164;48.818;2.322;2024-02-23T10:40:56;98485.69;;;10.17;45.25
22000;BME280;11164;48.818;2.322;2024-02-23T10:43:30;98491.00;;;9.78;46.14
22000;BME280;11164;48.818;2.322;2024-02-23T10:45:58;98483.97;;;9.43;46.56
22000;BME280;11164;48.818;2.322;2024-02-23T10:48:28;98476.41;;;9.57;46.08
22000;BME280;11164;48.818;2.322;2024-02-23T10:50:55;98472.31;;;9.88;45.47
22000;BME280;11164;48.818;2.322;2024-02-23T10:53:23;98482.19;;;10.00;45.31
22000;BME280;11164;48.818;2.322;2024-02-23T10:55:52;98477.53;;;9.78;45.82
22000;BME280;11164;48.818;2.322;2024-02-23T10:58:22;98474.59;;;10.13;45.10
22000;BME280;11164;48.818;2.322;2024-02-23T11:00:47;98461.72;;;10.60;44.33
22000;BME280;11164;48.818;2.322;2024-02-23T11:03:14;98469.34;;;11.12;43.86
22000;BME280;11164;48.818;2.322;2024-02-23T11:05:40;98458.44;;;11.02;43.95
22000;BME280;11164;48.818;2.322;2024-02-23T11:08:06;98454.47;;;11.10;44.12
22000;BME280;11164;48.818;2.322;2024-02-23T11:10:31;98451.22;;;11.07;44.09
22000;BME280;11164;48.818;2.322;2024-02-23T11:13:00;98468.56;;;10.67;44.52
22000;BME280;11164;48.818;2.322;2024-02-23T11:15:30;98460.44;;;10.23;45.10
22000;BME280;11164;48.818;2.322;2024-02-23T11:17:57;98459.38;;;10.91;44.63
22000;BME280;11164;48.818;2.322;2024-02-23T11:20:22;98460.88;;;11.03;44.23
22000;BME280;11164;48.818;2.322;2024-02-23T11:22:52;98457.66;;;11.06;44.29
22000;BME280;11164;48.818;2.322;2024-02-23T11:25:18;98460.31;;;11.29;43.98
22000;BME280;11164;48.818;2.322;2024-02-23T11:27:49;98449.47;;;11.23;43.42
22000;BME280;11164;48.818;2.322;2024-02-23T11:30:17;98471.25;;;10.90;43.77
22000;BME280;11164;48.818;2.322;2024-02-23T11:32:46;98467.84;;;10.33;45.00
22000;BME280;11164;48.818;2.322;2024-02-23T11:35:16;98464.72;;;10.41;44.49
22000;BME280;11164;48.818;2.322;2024-02-23T11:40:14;98470.66;;;10.60;44.59
22000;BME280;11164;48.818;2.322;2024-02-23T11:42:42;98465.34;;;10.93;43.83
22000;BME280;11164;48.818;2.322;2024-02-23T11:45:09;98460.59;;;11.05;43.89
22000;BME280;11164;48.818;2.322;2024-02-23T11:47:34;98466.28;;;11.03;43.92
22000;BME280;11164;48.818;2.322;2024-02-23T11:50:01;98469.38;;;11.17;43.84
22000;BME280;11164;48.818;2.322;2024-02-23T11:52:26;98467.50;;;11.18;43.99
22000;BME280;11164;48.818;2.322;2024-02-23T11:54:51;98470.34;;;11.66;43.97
22000;BME280;11164;48.818;2.322;2024-02-23T11:57:18;98466.78;;;11.28;44.09
22000;BME280;11164;48.818;2.322;2024-02-23T11:59:43;98458.13;;;11.25;43.94
22000;BME280;11164;48.818;2.322;2024-02-23T12:02:09;98448.97;;;11.27;43.97
22000;BME280;11164;48.818;2.322;2024-02-23T12:04:34;98460.06;;;11.62;43.55
22000;BME280;11164;48.818;2.322;2024-02-23T12:07:00;98463.56;;;11.63;43.57
22000;BME280;11164;48.818;2.322;2024-02-23T12:09:25;98445.63;;;11.14;44.55
22000;BME280;11164;48.818;2.322;2024-02-23T12:11:51;98437.53;;;11.47;44.11
22000;BME280;11164;48.818;2.322;2024-02-23T12:14:17;98446.47;;;11.85;43.52
22000;BME280;11164;48.818;2.322;2024-02-23T12:16:43;98444.31;;;11.81;43.13
22000;BME280;11164;48.818;2.322;2024-02-23T12:19:08;98439.22;;;11.85;43.16
22000;BME280;11164;48.818;2.322;2024-02-23T12:21:35;98436.59;;;12.00;43.17
22000;BME280;11164;48.818;2.322;2024-02-23T12:24:04;98431.59;;;11.77;43.57
22000;BME280;11164;48.818;2.322;2024-02-23T12:26:31;98432.94;;;11.79;43.58
22000;BME280;11164;48.818;2.322;2024-02-23T12:29:03;98426.34;;;11.65;43.29
22000;BME280;11164;48.818;2.322;2024-02-23T12:31:28;98409.53;;;11.90;43.66
22000;BME280;11164;48.818;2.322;2024-02-23T12:33:54;98411.72;;;11.98;43.54
22000;BME280;11164;48.818;2.322;2024-02-23T12:36:19;98411.03;;;12.18;43.07
22000;BME280;11164;48.818;2.322;2024-02-23T12:38:45;98401.56;;;12.16;43.29
22000;BME280;11164;48.818;2.322;2024-02-23T12:41:10;98407.88;;;12.37;42.68
22000;BME280;11164;48.818;2.322;2024-02-23T12:43:36;98392.34;;;12.12;42.95
22000;BME280;11164;48.818;2.322;2024-02-23T12:46:02;98391.38;;;12.38;42.78
22000;BME280;11164;48.818;2.322;2024-02-23T12:48:28;98392.94;;;12.24;42.96
22000;BME280;11164;48.818;2.322;2024-02-23T12:50:53;98376.84;;;12.50;42.50
22000;BME280;11164;48.818;2.322;2024-02-23T12:53:52;98379.59;;;12.65;36.84
22000;BME280;11164;48.818;2.322;2024-02-23T12:56:17;98381.78;;;12.73;42.03
22000;BME280;11164;48.818;2.322;2024-02-23T12:58:44;98375.56;;;12.83;42.09
22000;BME280;11164;48.818;2.322;2024-02-23T13:01:10;98390.00;;;12.26;42.97
22000;BME280;11164;48.818;2.322;2024-02-23T13:03:36;98370.84;;;12.37;42.85
22000;BME280;11164;48.818;2.322;2024-02-23T13:06:03;98366.53;;;12.42;42.38